sensor_id;sensor_type;location;lat;lon;timestamp;P1;durP1;ratioP1;P2;durP2;ratioP2
29824;SDS011;16713;52.916;12.834;2022-08-01T00:00:03;7.50;;;5.75;;
29824;SDS011;16713;52.916;12.834;2022-08-01T00:02:35;7.07;;;5.97;;
29824;SDS011;16713;52.916;12.834;2022-08-01T00:05:04;9.48;;;6.30;;
29824;SDS011;16713;52.916;12.834;2022-08-01T00:07:34;7.13;;;6.40;;
29824;SDS011;16713;52.916;12.834;2022-08-01T00:10:05;9.32;;;6.55;;
29824;SDS011;16713;52.916;12.834;2022-08-01T00:12:33;7.03;;;6.30;;
29824;SDS011;16713;52.916;12.834;2022-08-01T00:15:02;8.82;;;5.97;;
29824;SDS011;16713;52.916;12.834;2022-08-01T00:17:30;8.05;;;6.45;;
29824;SDS011;16713;52.916;12.834;2022-08-01T00:19:56;9.07;;;6.95;;
29824;SDS011;16713;52.916;12.834;2022-08-01T00:22:23;7.90;;;6.47;;
29824;SDS011;16713;52.916;12.834;2022-08-01T00:24:49;8.50;;;7.10;;
29824;SDS011;16713;52.916;12.834;2022-08-01T00:27:16;7.32;;;6.63;;
29824;SDS011;16713;52.916;12.834;2022-08-01T00:29:43;7.55;;;6.85;;
29824;SDS011;16713;52.916;12.834;2022-08-01T00:32:30;7.45;;;6.75;;
29824;SDS011;16713;52.916;12.834;2022-08-01T00:34:57;8.02;;;6.75;;
29824;SDS011;16713;52.916;12.834;2022-08-01T00:37:24;7.50;;;6.75;;
29824;SDS011;16713;52.916;12.834;2022-08-01T00:39:50;7.40;;;6.70;;
29824;SDS011;16713;52.916;12.834;2022-08-01T00:42:17;7.82;;;6.57;;
29824;SDS011;16713;52.916;12.834;2022-08-01T00:44:43;7.63;;;6.93;;
29824;SDS011;16713;52.916;12.834;2022-08-01T00:47:10;8.52;;;7.72;;
29824;SDS011;16713;52.916;12.834;2022-08-01T00:49:36;8.25;;;6.53;;
29824;SDS011;16713;52.916;12.834;2022-08-01T00:52:03;7.72;;;6.88;;
29824;SDS011;16713;52.916;12.834;2022-08-01T00:54:31;7.75;;;6.95;;
29824;SDS011;16713;52.916;12.834;2022-08-01T00:56:58;7.95;;;7.10;;
29824;SDS011;16713;52.916;12.834;2022-08-01T00:59:25;10.23;;;7.75;;
29824;SDS011;16713;52.916;12.834;2022-08-01T01:01:53;10.30;;;6.88;;
29824;SDS011;16713;52.916;12.834;2022-08-01T01:04:20;10.20;;;7.68;;
29824;SDS011;16713;52.916;12.834;2022-08-01T01:07:06;10.80;;;7.80;;
29824;SDS011;16713;52.916;12.834;2022-08-01T01:09:52;10.45;;;7.95;;
29824;SDS011;16713;52.916;12.834;2022-08-01T01:12:34;8.82;;;7.85;;
29824;SDS011;16713;52.916;12.834;2022-08-01T01:15:13;8.55;;;7.18;;
29824;SDS011;16713;52.916;12.834;2022-08-01T01:17:45;8.80;;;7.90;;
29824;SDS011;16713;52.916;12.834;2022-08-01T01:20:18;11.27;;;8.23;;
29824;SDS011;16713;52.916;12.834;2022-08-01T01:26:06;9.07;;;8.20;;
29824;SDS011;16713;52.916;12.834;2022-08-01T01:34:42;9.00;;;8.07;;
29824;SDS011;16713;52.916;12.834;2022-08-01T01:37:20;10.98;;;8.60;;
29824;SDS011;16713;52.916;12.834;2022-08-01T01:39:49;12.70;;;8.95;;
29824;SDS011;16713;52.916;12.834;2022-08-01T01:42:19;10.30;;;8.63;;
29824;SDS011;16713;52.916;12.834;2022-08-01T01:44:49;9.68;;;7.95;;
29824;SDS011;16713;52.916;12.834;2022-08-01T01:47:17;8.73;;;7.82;;
29824;SDS011;16713;52.916;12.834;2022-08-01T01:49:44;11.32;;;8.52;;
29824;SDS011;16713;52.916;12.834;2022-08-01T01:52:13;9.27;;;8.30;;
29824;SDS011;16713;52.916;12.834;2022-08-01T01:54:46;8.57;;;7.78;;
29824;SDS011;16713;52.916;12.834;2022-08-01T01:57:15;9.52;;;8.50;;
29824;SDS011;16713;52.916;12.834;2022-08-01T01:59:44;9.82;;;8.80;;
29824;SDS011;16713;52.916;12.834;2022-08-01T02:02:12;10.23;;;8.23;;
29824;SDS011;16713;52.916;12.834;2022-08-01T02:04:43;9.82;;;8.57;;
29824;SDS011;16713;52.916;12.834;2022-08-01T02:07:13;9.25;;;8.45;;
29824;SDS011;16713;52.916;12.834;2022-08-01T02:09:43;9.65;;;8.48;;
29824;SDS011;16713;52.916;12.834;2022-08-01T02:12:13;9.55;;;8.55;;
29824;SDS011;16713;52.916;12.834;2022-08-01T02:14:42;11.88;;;9.07;;
29824;SDS011;16713;52.916;12.834;2022-08-01T02:17:15;10.85;;;9.52;;
29824;SDS011;16713;52.916;12.834;2022-08-01T02:19:43;11.77;;;10.55;;
29824;SDS011;16713;52.916;12.834;2022-08-01T02:22:32;11.80;;;10.32;;
29824;SDS011;16713;52.916;12.834;2022-08-01T02:30:35;12.35;;;11.15;;
29824;SDS011;16713;52.916;12.834;2022-08-01T02:33:07;12.70;;;11.48;;
29824;SDS011;16713;52.916;12.834;2022-08-01T02:35:41;14.90;;;12.93;;
29824;SDS011;16713;52.916;12.834;2022-08-01T02:38:31;14.90;;;13.13;;
29824;SDS011;16713;52.916;12.834;2022-08-01T02:41:04;14.70;;;12.98;;
29824;SDS011;16713;52.916;12.834;2022-08-01T02:43:36;13.93;;;12.50;;
29824;SDS011;16713;52.916;12.834;2022-08-01T02:46:06;15.98;;;13.13;;
29824;SDS011;16713;52.916;12.834;2022-08-01T02:48:40;13.23;;;11.90;;
29824;SDS011;16713;52.916;12.834;2022-08-01T02:51:08;14.00;;;11.70;;
29824;SDS011;16713;52.916;12.834;2022-08-01T02:53:37;14.90;;;13.25;;
29824;SDS011;16713;52.916;12.834;2022-08-01T02:56:10;14.85;;;13.35;;
29824;SDS011;16713;52.916;12.834;2022-08-01T02:58:38;14.48;;;12.93;;
29824;SDS011;16713;52.916;12.834;2022-08-01T03:01:07;14.63;;;13.15;;
29824;SDS011;16713;52.916;12.834;2022-08-01T03:03:37;12.43;;;11.02;;
29824;SDS011;16713;52.916;12.834;2022-08-01T03:06:04;15.45;;;13.32;;
29824;SDS011;16713;52.916;12.834;2022-08-01T03:08:32;13.60;;;12.10;;
29824;SDS011;16713;52.916;12.834;2022-08-01T03:11:02;12.90;;;11.60;;
29824;SDS011;16713;52.916;12.834;2022-08-01T03:13:31;15.88;;;12.40;;
29824;SDS011;16713;52.916;12.834;2022-08-01T03:15:59;11.85;;;10.65;;
29824;SDS011;16713;52.916;12.834;2022-08-01T03:18:27;13.68;;;12.30;;
29824;SDS011;16713;52.916;12.834;2022-08-01T03:20:55;13.23;;;12.02;;
29824;SDS011;16713;52.916;12.834;2022-08-01T03:23:25;13.10;;;11.77;;
29824;SDS011;16713;52.916;12.834;2022-08-01T03:26:03;12.80;;;10.73;;
29824;SDS011;16713;52.916;12.834;2022-08-01T03:28:31;12.32;;;10.98;;
29824;SDS011;16713;52.916;12.834;2022-08-01T03:30:58;13.23;;;11.98;;
29824;SDS011;16713;52.916;12.834;2022-08-01T03:33:26;12.52;;;11.32;;
29824;SDS011;16713;52.916;12.834;2022-08-01T03:35:53;13.73;;;11.57;;
29824;SDS011;16713;52.916;12.834;2022-08-01T03:38:22;13.10;;;11.80;;
29824;SDS011;16713;52.916;12.834;2022-08-01T03:40:59;13.30;;;11.60;;
29824;SDS011;16713;52.916;12.834;2022-08-01T03:43:38;16.00;;;12.90;;
29824;SDS011;16713;52.916;12.834;2022-08-01T03:46:08;13.32;;;11.93;;
29824;SDS011;16713;52.916;12.834;2022-08-01T03:48:39;15.60;;;12.93;;
29824;SDS011;16713;52.916;12.834;2022-08-01T03:51:08;14.43;;;12.93;;
29824;SDS011;16713;52.916;12.834;2022-08-01T03:53:37;14.65;;;13.15;;
29824;SDS011;16713;52.916;12.834;2022-08-01T03:56:07;15.52;;;13.07;;
29824;SDS011;16713;52.916;12.834;2022-08-01T03:58:36;14.48;;;13.07;;
29824;SDS011;16713;52.916;12.834;2022-08-01T04:01:05;16.10;;;13.23;;
29824;SDS011;16713;52.916;12.834;2022-08-01T04:03:41;16.67;;;14.23;;
29824;SDS011;16713;52.916;12.834;2022-08-01T04:06:08;19.13;;;14.32;;
29824;SDS011;16713;52.916;12.834;2022-08-01T04:08:39;18.67;;;14.90;;
29824;SDS011;16713;52.916;12.834;2022-08-01T04:11:07;18.40;;;15.02;;
29824;SDS011;16713;52.916;12.834;2022-08-01T04:13:35;18.38;;;14.50;;
29824;SDS011;16713;52.916;12.834;2022-08-01T04:16:03;17.05;;;15.35;;
29824;SDS011;16713;52.916;12.834;2022-08-01T04:18:30;19.40;;;15.45;;
29824;SDS011;16713;52.916;12.834;2022-08-01T04:20:56;16.10;;;13.55;;
29824;SDS011;16713;52.916;12.834;2022-08-01T04:23:24;17.17;;;14.10;;
29824;SDS011;16713;52.916;12.834;2022-08-01T04:25:53;19.42;;;15.55;;
29824;SDS011;16713;52.916;12.834;2022-08-01T04:28:21;19.55;;;16.35;;
29824;SDS011;16713;52.916;12.834;2022-08-01T04:30:48;18.05;;;16.15;;
29824;SDS011;16713;52.916;12.834;2022-08-01T04:33:18;20.27;;;17.25;;
29824;SDS011;16713;52.916;12.834;2022-08-01T04:35:46;16.90;;;15.15;;
29824;SDS011;16713;52.916;12.834;2022-08-01T04:38:30;19.23;;;15.90;;
29824;SDS011;16713;52.916;12.834;2022-08-01T04:40:57;15.68;;;13.52;;
29824;SDS011;16713;52.916;12.834;2022-08-01T04:43:35;18.38;;;14.93;;
29824;SDS011;16713;52.916;12.834;2022-08-01T04:46:02;17.77;;;15.18;;
29824;SDS011;16713;52.916;12.834;2022-08-01T04:48:31;17.33;;;13.85;;
29824;SDS011;16713;52.916;12.834;2022-08-01T04:50:58;14.40;;;12.90;;
29824;SDS011;16713;52.916;12.834;2022-08-01T04:53:25;16.30;;;12.65;;
29824;SDS011;16713;52.916;12.834;2022-08-01T04:55:52;14.10;;;12.70;;
29824;SDS011;16713;52.916;12.834;2022-08-01T04:58:19;15.32;;;12.43;;
29824;SDS011;16713;52.916;12.834;2022-08-01T05:00:46;13.50;;;12.07;;
29824;SDS011;16713;52.916;12.834;2022-08-01T05:03:13;11.85;;;10.65;;
29824;SDS011;16713;52.916;12.834;2022-08-01T05:05:39;15.18;;;11.63;;
29824;SDS011;16713;52.916;12.834;2022-08-01T05:08:06;11.57;;;10.40;;
29824;SDS011;16713;52.916;12.834;2022-08-01T05:10:33;12.60;;;11.30;;
29824;SDS011;16713;52.916;12.834;2022-08-01T05:13:00;11.23;;;9.77;;
29824;SDS011;16713;52.916;12.834;2022-08-01T05:15:26;10.60;;;9.43;;
29824;SDS011;16713;52.916;12.834;2022-08-01T05:17:53;10.45;;;9.35;;
29824;SDS011;16713;52.916;12.834;2022-08-01T05:20:20;9.20;;;8.30;;
29824;SDS011;16713;52.916;12.834;2022-08-01T05:22:47;9.88;;;8.90;;
29824;SDS011;16713;52.916;12.834;2022-08-01T05:25:13;10.00;;;9.00;;
29824;SDS011;16713;52.916;12.834;2022-08-01T05:27:45;9.38;;;8.02;;
29824;SDS011;16713;52.916;12.834;2022-08-01T05:30:14;8.90;;;8.00;;
29824;SDS011;16713;52.916;12.834;2022-08-01T05:32:41;9.00;;;8.18;;
29824;SDS011;16713;52.916;12.834;2022-08-01T05:35:07;8.82;;;7.93;;
29824;SDS011;16713;52.916;12.834;2022-08-01T05:37:34;8.88;;;7.97;;
29824;SDS011;16713;52.916;12.834;2022-08-01T05:40:01;9.07;;;8.15;;
29824;SDS011;16713;52.916;12.834;2022-08-01T05:42:27;9.23;;;7.43;;
29824;SDS011;16713;52.916;12.834;2022-08-01T05:44:54;8.82;;;7.93;;
29824;SDS011;16713;52.916;12.834;2022-08-01T05:47:20;10.85;;;8.25;;
29824;SDS011;16713;52.916;12.834;2022-08-01T05:49:47;8.48;;;7.57;;
29824;SDS011;16713;52.916;12.834;2022-08-01T05:52:13;8.05;;;7.18;;
29824;SDS011;16713;52.916;12.834;2022-08-01T05:54:40;8.23;;;7.38;;
29824;SDS011;16713;52.916;12.834;2022-08-01T05:57:06;7.93;;;6.82;;
29824;SDS011;16713;52.916;12.834;2022-08-01T05:59:33;8.20;;;6.93;;
29824;SDS011;16713;52.916;12.834;2022-08-01T06:02:00;6.85;;;6.25;;
29824;SDS011;16713;52.916;12.834;2022-08-01T06:04:26;7.95;;;6.82;;
29824;SDS011;16713;52.916;12.834;2022-08-01T06:06:53;7.50;;;6.68;;
29824;SDS011;16713;52.916;12.834;2022-08-01T06:09:20;6.53;;;6.00;;
29824;SDS011;16713;52.916;12.834;2022-08-01T06:11:46;7.60;;;6.22;;
29824;SDS011;16713;52.916;12.834;2022-08-01T06:14:13;6.65;;;5.93;;
29824;SDS011;16713;52.916;12.834;2022-08-01T06:16:39;6.82;;;5.80;;
29824;SDS011;16713;52.916;12.834;2022-08-01T06:19:06;6.82;;;6.13;;
29824;SDS011;16713;52.916;12.834;2022-08-01T06:21:32;7.03;;;6.32;;
29824;SDS011;16713;52.916;12.834;2022-08-01T06:23:59;6.32;;;5.72;;
29824;SDS011;16713;52.916;12.834;2022-08-01T06:26:25;6.28;;;5.65;;
29824;SDS011;16713;52.916;12.834;2022-08-01T06:28:52;5.97;;;5.38;;
29824;SDS011;16713;52.916;12.834;2022-08-01T06:31:18;7.18;;;5.20;;
29824;SDS011;16713;52.916;12.834;2022-08-01T06:33:45;4.75;;;4.32;;
29824;SDS011;16713;52.916;12.834;2022-08-01T06:36:11;5.22;;;4.07;;
29824;SDS011;16713;52.916;12.834;2022-08-01T06:38:38;5.13;;;3.95;;
29824;SDS011;16713;52.916;12.834;2022-08-01T06:41:04;6.70;;;4.97;;
29824;SDS011;16713;52.916;12.834;2022-08-01T06:43:31;6.43;;;4.45;;
29824;SDS011;16713;52.916;12.834;2022-08-01T06:45:58;5.25;;;4.43;;
29824;SDS011;16713;52.916;12.834;2022-08-01T06:48:24;5.88;;;4.45;;
29824;SDS011;16713;52.916;12.834;2022-08-01T06:50:51;4.55;;;4.15;;
29824;SDS011;16713;52.916;12.834;2022-08-01T06:53:35;5.63;;;4.40;;
29824;SDS011;16713;52.916;12.834;2022-08-01T06:56:02;5.03;;;4.55;;
29824;SDS011;16713;52.916;12.834;2022-08-01T06:58:30;6.60;;;5.30;;
29824;SDS011;16713;52.916;12.834;2022-08-01T07:00:57;5.15;;;4.70;;
29824;SDS011;16713;52.916;12.834;2022-08-01T07:03:24;6.28;;;4.97;;
29824;SDS011;16713;52.916;12.834;2022-08-01T07:05:53;5.03;;;4.32;;
29824;SDS011;16713;52.916;12.834;2022-08-01T07:08:19;5.00;;;4.00;;
29824;SDS011;16713;52.916;12.834;2022-08-01T07:10:47;6.03;;;4.80;;
29824;SDS011;16713;52.916;12.834;2022-08-01T07:13:14;5.90;;;5.18;;
29824;SDS011;16713;52.916;12.834;2022-08-01T07:18:13;4.95;;;3.97;;
29824;SDS011;16713;52.916;12.834;2022-08-01T07:20:40;6.63;;;4.00;;
29824;SDS011;16713;52.916;12.834;2022-08-01T07:23:18;4.50;;;4.10;;
29824;SDS011;16713;52.916;12.834;2022-08-01T07:25:47;4.97;;;3.65;;
29824;SDS011;16713;52.916;12.834;2022-08-01T07:28:17;5.28;;;4.22;;
29824;SDS011;16713;52.916;12.834;2022-08-01T07:30:44;4.70;;;4.22;;
29824;SDS011;16713;52.916;12.834;2022-08-01T07:33:11;6.43;;;4.60;;
29824;SDS011;16713;52.916;12.834;2022-08-01T07:35:38;5.93;;;4.63;;
29824;SDS011;16713;52.916;12.834;2022-08-01T07:38:06;5.20;;;4.38;;
29824;SDS011;16713;52.916;12.834;2022-08-01T07:40:37;4.25;;;3.85;;
29824;SDS011;16713;52.916;12.834;2022-08-01T07:43:04;3.60;;;3.30;;
29824;SDS011;16713;52.916;12.834;2022-08-01T07:45:30;3.58;;;3.28;;
29824;SDS011;16713;52.916;12.834;2022-08-01T07:48:01;6.65;;;3.75;;
29824;SDS011;16713;52.916;12.834;2022-08-01T07:50:34;4.38;;;3.00;;
29824;SDS011;16713;52.916;12.834;2022-08-01T07:53:00;3.88;;;3.47;;
29824;SDS011;16713;52.916;12.834;2022-08-01T07:55:28;8.70;;;3.47;;
29824;SDS011;16713;52.916;12.834;2022-08-01T07:57:55;4.72;;;3.50;;
29824;SDS011;16713;52.916;12.834;2022-08-01T08:00:21;2.45;;;2.25;;
29824;SDS011;16713;52.916;12.834;2022-08-01T08:02:48;3.78;;;2.90;;
29824;SDS011;16713;52.916;12.834;2022-08-01T08:05:15;2.10;;;1.98;;
29824;SDS011;16713;52.916;12.834;2022-08-01T08:08:02;2.50;;;2.30;;
29824;SDS011;16713;52.916;12.834;2022-08-01T08:10:30;2.50;;;2.25;;
29824;SDS011;16713;52.916;12.834;2022-08-01T08:12:57;2.92;;;2.40;;
29824;SDS011;16713;52.916;12.834;2022-08-01T08:15:23;4.13;;;2.22;;
29824;SDS011;16713;52.916;12.834;2022-08-01T08:17:50;2.53;;;2.20;;
29824;SDS011;16713;52.916;12.834;2022-08-01T08:20:21;2.40;;;2.20;;
29824;SDS011;16713;52.916;12.834;2022-08-01T08:22:51;3.85;;;2.42;;
29824;SDS011;16713;52.916;12.834;2022-08-01T08:25:17;2.42;;;2.22;;
29824;SDS011;16713;52.916;12.834;2022-08-01T08:27:52;2.50;;;2.30;;
29824;SDS011;16713;52.916;12.834;2022-08-01T08:30:18;5.60;;;3.08;;
29824;SDS011;16713;52.916;12.834;2022-08-01T08:32:47;3.05;;;2.75;;
29824;SDS011;16713;52.916;12.834;2022-08-01T08:35:14;4.22;;;3.83;;
29824;SDS011;16713;52.916;12.834;2022-08-01T08:38:00;2.50;;;2.25;;
29824;SDS011;16713;52.916;12.834;2022-08-01T08:40:29;2.58;;;2.13;;
29824;SDS011;16713;52.916;12.834;2022-08-01T08:42:57;2.70;;;2.33;;
29824;SDS011;16713;52.916;12.834;2022-08-01T08:45:26;5.10;;;2.45;;
29824;SDS011;16713;52.916;12.834;2022-08-01T08:48:13;2.65;;;2.13;;
29824;SDS011;16713;52.916;12.834;2022-08-01T08:50:41;1.92;;;1.83;;
29824;SDS011;16713;52.916;12.834;2022-08-01T08:53:09;3.13;;;2.83;;
29824;SDS011;16713;52.916;12.834;2022-08-01T08:55:41;3.75;;;3.00;;
29824;SDS011;16713;52.916;12.834;2022-08-01T08:58:21;2.75;;;2.55;;
29824;SDS011;16713;52.916;12.834;2022-08-01T09:00:56;5.55;;;2.78;;
29824;SDS011;16713;52.916;12.834;2022-08-01T09:03:24;4.78;;;2.60;;
29824;SDS011;16713;52.916;12.834;2022-08-01T09:05:51;3.40;;;2.70;;
29824;SDS011;16713;52.916;12.834;2022-08-01T09:08:17;2.58;;;2.38;;
29824;SDS011;16713;52.916;12.834;2022-08-01T09:10:44;2.85;;;2.47;;
29824;SDS011;16713;52.916;12.834;2022-08-01T09:13:11;5.97;;;2.75;;
29824;SDS011;16713;52.916;12.834;2022-08-01T09:15:40;2.55;;;2.35;;
29824;SDS011;16713;52.916;12.834;2022-08-01T09:18:06;3.20;;;2.45;;
29824;SDS011;16713;52.916;12.834;2022-08-01T09:20:33;2.85;;;2.20;;
29824;SDS011;16713;52.916;12.834;2022-08-01T09:23:03;3.70;;;2.05;;
29824;SDS011;16713;52.916;12.834;2022-08-01T09:25:29;3.28;;;2.20;;
29824;SDS011;16713;52.916;12.834;2022-08-01T09:28:13;2.58;;;1.90;;
29824;SDS011;16713;52.916;12.834;2022-08-01T09:30:41;1.88;;;1.70;;
29824;SDS011;16713;52.916;12.834;2022-08-01T09:33:08;2.10;;;2.00;;
29824;SDS011;16713;52.916;12.834;2022-08-01T09:35:53;3.25;;;2.30;;
29824;SDS011;16713;52.916;12.834;2022-08-01T09:38:24;2.03;;;1.70;;
29824;SDS011;16713;52.916;12.834;2022-08-01T09:40:56;1.40;;;1.30;;
29824;SDS011;16713;52.916;12.834;2022-08-01T09:43:25;1.67;;;1.30;;
29824;SDS011;16713;52.916;12.834;2022-08-01T09:45:53;1.70;;;1.58;;
29824;SDS011;16713;52.916;12.834;2022-08-01T09:48:23;1.67;;;1.58;;
29824;SDS011;16713;52.916;12.834;2022-08-01T09:50:55;1.48;;;1.40;;
29824;SDS011;16713;52.916;12.834;2022-08-01T09:53:41;1.55;;;1.45;;
29824;SDS011;16713;52.916;12.834;2022-08-01T09:56:18;1.40;;;1.30;;
29824;SDS011;16713;52.916;12.834;2022-08-01T09:58:53;1.70;;;1.45;;
29824;SDS011;16713;52.916;12.834;2022-08-01T10:01:27;1.75;;;1.60;;
29824;SDS011;16713;52.916;12.834;2022-08-01T10:04:19;2.70;;;1.40;;
29824;SDS011;16713;52.916;12.834;2022-08-01T10:06:48;3.30;;;1.45;;
29824;SDS011;16713;52.916;12.834;2022-08-01T10:09:28;1.58;;;1.40;;
29824;SDS011;16713;52.916;12.834;2022-08-01T10:12:05;1.65;;;1.55;;
29824;SDS011;16713;52.916;12.834;2022-08-01T10:14:34;1.65;;;1.42;;
29824;SDS011;16713;52.916;12.834;2022-08-01T10:17:02;2.85;;;1.88;;
29824;SDS011;16713;52.916;12.834;2022-08-01T10:19:30;4.25;;;2.22;;
29824;SDS011;16713;52.916;12.834;2022-08-01T10:21:58;2.70;;;1.95;;
29824;SDS011;16713;52.916;12.834;2022-08-01T10:24:27;2.35;;;2.15;;
29824;SDS011;16713;52.916;12.834;2022-08-01T10:26:59;3.38;;;2.45;;
29824;SDS011;16713;52.916;12.834;2022-08-01T10:32:31;2.45;;;2.25;;
29824;SDS011;16713;52.916;12.834;2022-08-01T10:35:01;2.10;;;1.90;;
29824;SDS011;16713;52.916;12.834;2022-08-01T10:37:32;6.50;;;2.30;;
29824;SDS011;16713;52.916;12.834;2022-08-01T10:40:17;2.38;;;2.17;;
29824;SDS011;16713;52.916;12.834;2022-08-01T10:42:55;2.78;;;2.47;;
29824;SDS011;16713;52.916;12.834;2022-08-01T10:45:23;3.00;;;2.30;;
29824;SDS011;16713;52.916;12.834;2022-08-01T10:48:00;4.63;;;2.42;;
29824;SDS011;16713;52.916;12.834;2022-08-01T10:53:23;2.78;;;2.20;;
29824;SDS011;16713;52.916;12.834;2022-08-01T11:06:26;2.88;;;2.58;;
29824;SDS011;16713;52.916;12.834;2022-08-01T11:09:04;6.07;;;3.10;;
29824;SDS011;16713;52.916;12.834;2022-08-01T11:20:04;2.50;;;2.25;;
29824;SDS011;16713;52.916;12.834;2022-08-01T11:28:27;3.78;;;2.50;;
29824;SDS011;16713;52.916;12.834;2022-08-01T11:44:07;4.05;;;2.53;;
29824;SDS011;16713;52.916;12.834;2022-08-01T11:46:47;2.92;;;2.50;;
29824;SDS011;16713;52.916;12.834;2022-08-01T11:54:54;5.75;;;2.63;;
29824;SDS011;16713;52.916;12.834;2022-08-01T11:57:26;4.05;;;2.33;;
29824;SDS011;16713;52.916;12.834;2022-08-01T12:00:02;4.07;;;2.40;;
29824;SDS011;16713;52.916;12.834;2022-08-01T12:02:34;4.32;;;2.33;;
29824;SDS011;16713;52.916;12.834;2022-08-01T12:05:02;2.85;;;1.98;;
29824;SDS011;16713;52.916;12.834;2022-08-01T12:07:34;5.03;;;2.22;;
29824;SDS011;16713;52.916;12.834;2022-08-01T12:12:45;2.40;;;1.90;;
29824;SDS011;16713;52.916;12.834;2022-08-01T12:15:15;3.03;;;1.75;;
29824;SDS011;16713;52.916;12.834;2022-08-01T12:17:43;2.17;;;1.80;;
29824;SDS011;16713;52.916;12.834;2022-08-01T12:20:25;1.90;;;1.80;;
29824;SDS011;16713;52.916;12.834;2022-08-01T12:22:56;2.95;;;2.15;;
29824;SDS011;16713;52.916;12.834;2022-08-01T12:25:24;3.53;;;1.50;;
29824;SDS011;16713;52.916;12.834;2022-08-01T12:27:51;3.38;;;1.77;;
29824;SDS011;16713;52.916;12.834;2022-08-01T12:30:22;2.10;;;1.85;;
29824;SDS011;16713;52.916;12.834;2022-08-01T12:32:50;2.97;;;1.52;;
29824;SDS011;16713;52.916;12.834;2022-08-01T12:35:22;3.83;;;1.70;;
29824;SDS011;16713;52.916;12.834;2022-08-01T12:40:22;1.93;;;1.40;;
29824;SDS011;16713;52.916;12.834;2022-08-01T12:42:55;4.40;;;1.23;;
29824;SDS011;16713;52.916;12.834;2022-08-01T12:48:02;0.90;;;0.90;;
29824;SDS011;16713;52.916;12.834;2022-08-01T12:50:34;3.10;;;1.10;;
29824;SDS011;16713;52.916;12.834;2022-08-01T12:53:04;1.45;;;1.35;;
29824;SDS011;16713;52.916;12.834;2022-08-01T12:55:32;6.32;;;2.50;;
29824;SDS011;16713;52.916;12.834;2022-08-01T12:58:06;1.27;;;1.17;;
29824;SDS011;16713;52.916;12.834;2022-08-01T13:00:41;1.75;;;1.23;;
29824;SDS011;16713;52.916;12.834;2022-08-01T13:03:12;1.08;;;0.98;;
29824;SDS011;16713;52.916;12.834;2022-08-01T13:05:53;3.72;;;1.02;;
29824;SDS011;16713;52.916;12.834;2022-08-01T13:10:51;0.93;;;0.75;;
29824;SDS011;16713;52.916;12.834;2022-08-01T13:13:34;1.25;;;1.08;;
29824;SDS011;16713;52.916;12.834;2022-08-01T13:16:10;1.17;;;0.70;;
29824;SDS011;16713;52.916;12.834;2022-08-01T13:18:57;1.10;;;0.95;;
29824;SDS011;16713;52.916;12.834;2022-08-01T13:24:12;5.75;;;1.02;;
29824;SDS011;16713;52.916;12.834;2022-08-01T13:29:18;1.38;;;0.80;;
29824;SDS011;16713;52.916;12.834;2022-08-01T13:31:49;1.80;;;1.15;;
29824;SDS011;16713;52.916;12.834;2022-08-01T13:34:16;0.77;;;0.77;;
29824;SDS011;16713;52.916;12.834;2022-08-01T13:36:42;0.95;;;0.95;;
29824;SDS011;16713;52.916;12.834;2022-08-01T13:41:59;2.42;;;1.88;;
29824;SDS011;16713;52.916;12.834;2022-08-01T13:44:25;2.05;;;1.00;;
29824;SDS011;16713;52.916;12.834;2022-08-01T13:46:52;1.10;;;1.00;;
29824;SDS011;16713;52.916;12.834;2022-08-01T13:49:20;1.40;;;0.88;;
29824;SDS011;16713;52.916;12.834;2022-08-01T13:51:48;2.28;;;0.90;;
29824;SDS011;16713;52.916;12.834;2022-08-01T13:54:16;1.20;;;1.10;;
29824;SDS011;16713;52.916;12.834;2022-08-01T13:56:43;0.90;;;0.90;;
29824;SDS011;16713;52.916;12.834;2022-08-01T13:59:10;3.13;;;0.90;;
29824;SDS011;16713;52.916;12.834;2022-08-01T14:01:37;1.25;;;0.98;;
29824;SDS011;16713;52.916;12.834;2022-08-01T14:04:04;1.70;;;0.90;;
29824;SDS011;16713;52.916;12.834;2022-08-01T14:06:31;1.95;;;1.35;;
29824;SDS011;16713;52.916;12.834;2022-08-01T14:08:58;0.95;;;0.90;;
29824;SDS011;16713;52.916;12.834;2022-08-01T14:11:26;1.20;;;1.10;;
29824;SDS011;16713;52.916;12.834;2022-08-01T14:14:02;2.25;;;1.10;;
29824;SDS011;16713;52.916;12.834;2022-08-01T14:16:29;2.47;;;1.95;;
29824;SDS011;16713;52.916;12.834;2022-08-01T14:18:56;1.17;;;1.08;;
29824;SDS011;16713;52.916;12.834;2022-08-01T14:21:23;1.02;;;0.90;;
29824;SDS011;16713;52.916;12.834;2022-08-01T14:23:50;1.88;;;1.10;;
29824;SDS011;16713;52.916;12.834;2022-08-01T14:26:17;2.45;;;0.95;;
29824;SDS011;16713;52.916;12.834;2022-08-01T14:28:43;1.00;;;1.00;;
29824;SDS011;16713;52.916;12.834;2022-08-01T14:31:10;1.90;;;1.27;;
29824;SDS011;16713;52.916;12.834;2022-08-01T14:33:37;2.70;;;1.08;;
29824;SDS011;16713;52.916;12.834;2022-08-01T14:36:03;2.45;;;0.98;;
29824;SDS011;16713;52.916;12.834;2022-08-01T14:38:50;1.58;;;0.80;;
29824;SDS011;16713;52.916;12.834;2022-08-01T14:41:17;3.72;;;1.20;;
29824;SDS011;16713;52.916;12.834;2022-08-01T14:43:43;1.83;;;1.02;;
29824;SDS011;16713;52.916;12.834;2022-08-01T14:46:13;1.83;;;1.10;;
29824;SDS011;16713;52.916;12.834;2022-08-01T14:48:43;3.42;;;1.13;;
29824;SDS011;16713;52.916;12.834;2022-08-01T14:51:10;2.85;;;0.95;;
29824;SDS011;16713;52.916;12.834;2022-08-01T14:53:37;0.70;;;0.70;;
29824;SDS011;16713;52.916;12.834;2022-08-01T14:56:15;1.00;;;1.00;;
29824;SDS011;16713;52.916;12.834;2022-08-01T14:58:41;1.48;;;0.80;;
29824;SDS011;16713;52.916;12.834;2022-08-01T15:01:08;1.60;;;0.90;;
29824;SDS011;16713;52.916;12.834;2022-08-01T15:03:35;4.18;;;1.17;;
29824;SDS011;16713;52.916;12.834;2022-08-01T15:06:02;1.75;;;0.70;;
29824;SDS011;16713;52.916;12.834;2022-08-01T15:08:30;1.50;;;1.00;;
29824;SDS011;16713;52.916;12.834;2022-08-01T15:10:58;1.65;;;1.17;;
29824;SDS011;16713;52.916;12.834;2022-08-01T15:13:25;0.98;;;0.70;;
29824;SDS011;16713;52.916;12.834;2022-08-01T15:15:52;1.23;;;0.82;;
29824;SDS011;16713;52.916;12.834;2022-08-01T15:18:19;3.97;;;1.13;;
29824;SDS011;16713;52.916;12.834;2022-08-01T15:20:45;1.88;;;1.15;;
29824;SDS011;16713;52.916;12.834;2022-08-01T15:23:12;5.82;;;1.23;;
29824;SDS011;16713;52.916;12.834;2022-08-01T15:25:39;4.07;;;1.83;;
29824;SDS011;16713;52.916;12.834;2022-08-01T15:28:08;2.70;;;1.10;;
29824;SDS011;16713;52.916;12.834;2022-08-01T15:30:35;2.15;;;1.10;;
29824;SDS011;16713;52.916;12.834;2022-08-01T15:33:02;3.65;;;1.10;;
29824;SDS011;16713;52.916;12.834;2022-08-01T15:35:29;1.35;;;1.08;;
29824;SDS011;16713;52.916;12.834;2022-08-01T15:37:55;2.15;;;0.90;;
29824;SDS011;16713;52.916;12.834;2022-08-01T15:40:22;2.08;;;0.90;;
29824;SDS011;16713;52.916;12.834;2022-08-01T15:42:48;1.27;;;0.90;;
29824;SDS011;16713;52.916;12.834;2022-08-01T15:45:15;2.72;;;1.17;;
29824;SDS011;16713;52.916;12.834;2022-08-01T15:48:04;2.25;;;0.90;;
29824;SDS011;16713;52.916;12.834;2022-08-01T15:50:31;0.77;;;0.77;;
29824;SDS011;16713;52.916;12.834;2022-08-01T15:52:57;1.50;;;1.27;;
29824;SDS011;16713;52.916;12.834;2022-08-01T15:55:24;2.42;;;1.40;;
29824;SDS011;16713;52.916;12.834;2022-08-01T15:57:50;5.10;;;1.40;;
29824;SDS011;16713;52.916;12.834;2022-08-01T16:00:17;1.30;;;1.20;;
29824;SDS011;16713;52.916;12.834;2022-08-01T16:02:43;3.40;;;0.93;;
29824;SDS011;16713;52.916;12.834;2022-08-01T16:05:10;5.18;;;1.13;;
29824;SDS011;16713;52.916;12.834;2022-08-01T16:07:37;1.30;;;0.82;;